Time;durP1;ratioP1;P1;durP2;ratioP2;P2;SDS_P1;SDS_P2;PMS_P1;PMS_P2;Temp;Humidity;BMP_temperature;BMP_pressure;BME280_temperature;BME280_humidity;BME280_pressure;Samples;Min_cycle;Max_cycle;Signal;HPM_P1;HPM_P2
2021/12/09 01:48:00;;;;;;;857.03;789.00;;;0.80;99.90;;;;;;4904012;29;20495;-86
2021/12/09 02:54:03;;;;;;;893.80;818.00;;;0.40;99.90;;;;;;4941650;29;20546;-86
2021/12/09 03:13:41;;;;;;;838.63;766.40;;;0.10;99.90;;;;;;4790235;29;20492;-86
2021/12/09 03:30:03;;;;;;;873.90;799.03;;;-0.40;99.90;;;;;;4962579;29;20476;-86
2021/12/09 03:32:46;;;;;;;874.27;798.20;;;-0.60;99.90;;;;;;4905128;29;20481;-86
2021/12/09 03:35:37;;;;;;;882.63;805.73;;;-0.50;99.90;;;;;;4911840;29;20545;-88
2021/12/09 03:38:10;;;;;;;889.70;811.92;;;-0.60;99.90;;;;;;4966461;29;20503;-86
2021/12/09 03:41:34;;;;;;;;;;;;;;;;;;;;;
2021/12/09 03:54:56;;;;;;;887.70;809.43;;;-0.40;99.90;;;;;;4980473;28;20466;-87
2021/12/09 04:01:00;;;;;;;884.07;803.63;;;-0.50;99.90;;;;;;4973610;28;20358;-86
2021/12/09 04:14:57;;;;;;;;;;;;;;;;;;;;;
2021/12/09 04:24:34;;;;;;;910.93;830.17;;;-1.00;99.90;;;;;;4941748;29;20453;-87
2021/12/09 04:27:20;;;;;;;916.93;835.43;;;-1.00;99.90;;;;;;5026908;28;20485;-86
2021/12/09 04:35:47;;;;;;;936.17;851.33;;;-1.00;99.90;;;;;;5026408;28;20465;-87
2021/12/09 04:56:12;;;;;;;935.80;858.10;;;-0.80;99.90;;;;;;4878993;29;20544;-86
2021/12/09 04:58:52;;;;;;;943.30;866.80;;;-1.00;99.90;;;;;;4930997;28;20477;-85
2021/12/09 05:02:14;;;;;;;;;;;;;;;;;;;;;
2021/12/09 05:08:38;;;;;;;946.07;869.57;;;-1.00;99.90;;;;;;4951139;29;20617;-85
2021/12/09 05:11:50;;;;;;;963.20;885.30;;;-1.10;99.90;;;;;;4980271;28;20892;-86
2021/12/09 05:23:06;;;;;;;944.38;867.92;;;-1.10;99.90;;;;;;5025011;28;21024;-86
2021/12/09 05:25:36;;;;;;;943.78;868.92;;;-1.20;99.90;;;;;;5028251;28;20270;-85
2021/12/09 05:28:03;;;;;;;980.03;902.57;;;-1.10;99.90;;;;;;5030358;28;20215;-86
2021/12/09 05:32:07;;;;;;;971.63;895.93;;;-1.20;99.90;;;;;;5025220;28;20478;-85
2021/12/09 05:33:25;;;;;;;970.95;895.13;;;-1.30;99.90;;;;;;5022753;28;20591;-87
2021/12/09 05:35:51;;;;;;;980.72;903.40;;;-1.30;99.90;;;;;;5023169;28;20198;-87
2021/12/09 05:38:18;;;;;;;986.78;909.10;;;-1.20;99.90;;;;;;5018996;28;20730;-87
2021/12/09 05:41:23;;;;;;;974.58;896.60;;;-1.20;99.90;;;;;;5020395;28;20202;-86
2021/12/09 05:44:16;;;;;;;976.05;894.75;;;-1.10;99.90;;;;;;5008871;28;20206;-87
2021/12/09 05:46:47;;;;;;;991.13;910.28;;;-0.90;99.90;;;;;;5017955;28;20195;-82
2021/12/09 05:49:16;;;;;;;988.83;907.50;;;-0.90;99.90;;;;;;5022705;28;20714;-85
2021/12/09 05:52:28;;;;;;;996.15;914.72;;;-0.80;99.90;;;;;;5029919;28;20477;-85
2021/12/09 05:54:58;;;;;;;993.05;913.00;;;-0.80;99.90;;;;;;5023822;28;20269;-86
2021/12/09 05:57:27;;;;;;;986.23;905.90;;;-0.80;99.90;;;;;;5027480;28;20265;-86
2021/12/09 06:00:00;;;;;;;982.67;902.83;;;-0.90;99.90;;;;;;5025842;28;20457;-86
2021/12/09 06:02:29;;;;;;;968.60;890.60;;;-0.90;99.90;;;;;;5026483;28;20297;-86
2021/12/09 06:04:57;;;;;;;966.23;889.63;;;-1.00;99.90;;;;;;5029568;28;20915;-85
2021/12/09 07:03:23;;;;;;;;;;;;;;;;;;;;;
2021/12/09 07:23:20;;;;;;;894.07;828.77;;;-0.70;99.90;;;;;;5558093;22;15452223;-87
2021/12/09 07:25:54;;;;;;;892.13;826.03;;;-0.50;99.90;;;;;;6207784;23;20260;-86
2021/12/09 07:28:24;;;;;;;892.40;825.93;;;-0.60;99.90;;;;;;6204808;23;20459;-86
2021/12/09 07:30:59;;;;;;;891.90;824.67;;;-0.50;99.90;;;;;;6204506;23;20930;-86
2021/12/09 07:33:26;;;;;;;903.20;832.50;;;-0.60;99.90;;;;;;6196960;23;20400;-86
2021/12/09 07:36:05;;;;;;;876.77;803.87;;;-0.40;99.90;;;;;;6195015;23;20412;-86
2021/12/09 07:38:41;;;;;;;849.40;774.80;;;-0.20;99.90;;;;;;6204044;23;20442;-86
2021/12/09 07:41:10;;;;;;;819.87;748.73;;;0.20;99.90;;;;;;6206474;23;20412;-86
2021/12/09 07:43:50;;;;;;;822.37;756.93;;;0.40;99.90;;;;;;6207245;23;20432;-86
2021/12/09 07:46:18;;;;;;;819.03;745.55;;;0.70;99.90;;;;;;6208720;23;20418;-86
2021/12/09 07:48:51;;;;;;;807.90;739.33;;;0.80;99.90;;;;;;6198449;23;20204;-86
2021/12/09 07:51:18;;;;;;;806.17;738.50;;;0.80;99.90;;;;;;6206916;23;20440;-86
2021/12/09 07:53:59;;;;;;;804.70;738.10;;;1.00;99.90;;;;;;6204175;23;20470;-85
2021/12/09 07:56:28;;;;;;;811.63;743.07;;;0.90;99.90;;;;;;6205018;23;20480;-86
2021/12/09 07:58:56;;;;;;;809.03;741.53;;;0.90;99.90;;;;;;6208334;23;20462;-86
2021/12/09 08:01:30;;;;;;;824.03;755.97;;;0.80;99.90;;;;;;6212018;23;20439;-86
2021/12/09 08:03:58;;;;;;;804.07;738.57;;;0.80;99.90;;;;;;6209747;23;20409;-85
2021/12/09 08:06:27;;;;;;;811.67;744.57;;;0.90;99.90;;;;;;6206368;23;20593;-85
2021/12/09 08:09:00;;;;;;;813.10;746.20;;;1.00;99.90;;;;;;6205015;23;20436;-86
2021/12/09 08:11:37;;;;;;;811.07;744.40;;;0.90;99.90;;;;;;6196259;23;20475;-85
2021/12/09 08:14:04;;;;;;;811.42;745.55;;;1.00;99.90;;;;;;6206644;23;20408;-86
2021/12/09 08:16:37;;;;;;;818.07;751.30;;;1.00;99.90;;;;;;6204348;23;20168;-85
2021/12/09 08:19:08;;;;;;;807.77;740.03;;;1.00;99.90;;;;;;6206164;23;20931;-86
2021/12/09 08:21:37;;;;;;;811.77;745.03;;;1.00;99.90;;;;;;6224233;22;20418;-86
2021/12/09 08:24:12;;;;;;;816.40;747.47;;;0.80;99.90;;;;;;6249784;23;20414;-85
2021/12/09 08:26:49;;;;;;;815.97;747.80;;;0.80;99.90;;;;;;6262926;23;20442;-86
2021/12/09 08:29:19;;;;;;;818.43;750.63;;;0.90;99.90;;;;;;6263743;23;20435;-86
2021/12/09 08:31:49;;;;;;;804.67;738.70;;;1.00;99.90;;;;;;6255171;23;20431;-86
2021/12/09 08:34:21;;;;;;;797.53;730.78;;;1.00;99.90;;;;;;6265628;23;20738;-87
2021/12/09 08:36:48;;;;;;;799.10;732.07;;;1.20;99.90;;;;;;6253374;23;20156;-86
2021/12/09 08:39:28;;;;;;;799.37;732.30;;;1.20;99.90;;;;;;6259162;23;20577;-86
2021/12/09 08:41:56;;;;;;;794.73;727.53;;;1.10;99.90;;;;;;6259396;23;20874;-86
2021/12/09 08:44:30;;;;;;;811.17;743.20;;;1.20;99.90;;;;;;6259270;23;20493;-88
2021/12/09 08:47:08;;;;;;;797.72;729.03;;;1.30;99.90;;;;;;6258957;23;20422;-86
2021/12/09 08:49:37;;;;;;;791.57;723.47;;;1.20;99.90;;;;;;6259821;23;20251;-86
2021/12/09 08:52:07;;;;;;;784.07;716.23;;;1.40;99.90;;;;;;6259735;23;20439;-86
2021/12/09 08:54:39;;;;;;;786.83;720.10;;;1.30;99.90;;;;;;6261158;23;20403;-86
2021/12/09 08:57:07;;;;;;;779.47;712.07;;;1.40;99.90;;;;;;6260913;23;20415;-86
2021/12/09 08:59:39;;;;;;;787.57;720.47;;;1.40;99.90;;;;;;6261797;23;20414;-87
2021/12/09 09:02:10;;;;;;;791.67;723.73;;;1.30;99.90;;;;;;6263029;23;20430;-86
2021/12/09 09:04:38;;;;;;;771.00;703.20;;;1.40;99.90;;;;;;6252658;23;20419;-85
2021/12/09 09:07:09;;;;;;;778.60;710.47;;;1.40;99.90;;;;;;6249950;23;20411;-84
2021/12/09 09:09:41;;;;;;;764.17;695.47;;;1.50;99.90;;;;;;6258627;23;20419;-86
2021/12/09 09:12:14;;;;;;;782.47;712.70;;;1.60;99.90;;;;;;6247223;23;20419;-85
2021/12/09 09:14:41;;;;;;;789.23;718.70;;;1.60;99.90;;;;;;6257716;23;20415;-85
2021/12/09 09:17:10;;;;;;;786.40;716.00;;;1.70;99.90;;;;;;6257156;23;20464;-86
2021/12/09 09:19:38;;;;;;;775.90;705.73;;;1.70;99.90;;;;;;6258256;23;20404;-86
2021/12/09 09:22:05;;;;;;;784.33;714.83;;;1.90;99.90;;;;;;6257521;23;20451;-85
2021/12/09 09:24:33;;;;;;;776.50;707.70;;;1.90;99.90;;;;;;6257495;23;20928;-86
2021/12/09 09:27:01;;;;;;;771.37;704.33;;;2.10;99.90;;;;;;6246911;23;20465;-84
2021/12/09 09:29:28;;;;;;;768.07;702.37;;;2.20;99.90;;;;;;6247314;23;20798;-84
2021/12/09 09:31:56;;;;;;;764.00;700.70;;;2.40;99.90;;;;;;6246798;23;20526;-85
2021/12/09 09:34:23;;;;;;;753.27;693.60;;;2.60;99.90;;;;;;6256190;23;20812;-85
2021/12/09 09:36:50;;;;;;;760.80;705.70;;;3.00;99.90;;;;;;6256978;22;20415;-85
2021/12/09 09:39:22;;;;;;;764.10;708.50;;;3.10;99.90;;;;;;6256275;23;20969;-85
2021/12/09 09:41:59;;;;;;;762.43;711.20;;;3.40;99.90;;;;;;6256299;23;20422;-85
2021/12/09 09:44:33;;;;;;;743.20;696.93;;;3.40;99.90;;;;;;6256770;23;20433;-85
2021/12/09 09:47:03;;;;;;;689.70;651.30;;;3.40;99.90;;;;;;6256344;23;20771;-83
2021/12/09 09:49:34;;;;;;;627.57;596.37;;;3.50;99.90;;;;;;6257053;23;20938;-86
2021/12/09 09:52:01;;;;;;;608.57;579.93;;;3.50;99.90;;;;;;6256819;23;20420;-85
2021/12/09 09:54:28;;;;;;;654.20;622.10;;;3.60;99.90;;;;;;6246304;23;20419;-85
2021/12/09 09:56:55;;;;;;;651.17;619.87;;;3.60;99.90;;;;;;6256238;23;20421;-85
2021/12/09 09:59:22;;;;;;;638.47;608.07;;;3.70;99.90;;;;;;6256114;23;20423;-85
2021/12/09 10:01:53;;;;;;;609.40;581.60;;;3.70;99.90;;;;;;6246357;23;20489;-85
2021/12/09 10:04:31;;;;;;;577.57;551.53;;;3.80;99.90;;;;;;6246208;23;20392;-85
2021/12/09 10:06:59;;;;;;;472.37;452.90;;;4.00;99.90;;;;;;6246385;23;20403;-85
2021/12/09 10:09:26;;;;;;;459.87;440.73;;;4.10;99.90;;;;;;6246436;23;20439;-85
2021/12/09 10:11:55;;;;;;;439.80;422.10;;;4.10;99.90;;;;;;6256047;23;20518;-86
2021/12/09 10:14:26;;;;;;;502.67;481.43;;;4.20;99.90;;;;;;6246258;23;20755;-85
2021/12/09 10:17:07;;;;;;;474.87;454.13;;;4.40;99.90;;;;;;6255885;23;20414;-85
2021/12/09 10:19:39;;;;;;;346.00;332.97;;;4.30;99.90;;;;;;6245924;23;20479;-85
2021/12/09 10:22:10;;;;;;;311.87;300.03;;;4.40;99.90;;;;;;6256028;23;20889;-86
2021/12/09 10:24:38;;;;;;;252.47;242.93;;;4.40;99.90;;;;;;6245936;23;20458;-85
2021/12/09 10:27:06;;;;;;;198.97;191.67;;;4.40;99.90;;;;;;6255871;23;20424;-85
2021/12/09 10:29:37;;;;;;;195.73;188.80;;;4.30;99.90;;;;;;6255960;23;20422;-85
2021/12/09 10:32:10;;;;;;;178.53;172.00;;;4.40;99.90;;;;;;6256170;23;20480;-85
2021/12/09 10:34:40;;;;;;;170.47;163.90;;;4.40;99.90;;;;;;6246834;23;20399;-86
2021/12/09 10:37:20;;;;;;;174.17;167.63;;;4.50;99.90;;;;;;6255989;23;20413;-85
2021/12/09 10:39:50;;;;;;;158.20;152.53;;;4.50;99.90;;;;;;6256035;23;20421;-85
2021/12/09 10:42:23;;;;;;;132.83;127.90;;;4.40;99.90;;;;;;6246116;23;20398;-85
2021/12/09 10:44:59;;;;;;;109.43;105.17;;;4.40;99.90;;;;;;6255644;22;20499;-85
2021/12/09 10:47:46;;;;;;;105.20;100.80;;;4.40;99.90;;;;;;6255995;23;20815;-85
2021/12/09 10:50:22;;;;;;;97.57;93.47;;;4.40;99.90;;;;;;6256163;23;20453;-85
2021/12/09 10:52:55;;;;;;;80.20;76.20;;;4.40;99.90;;;;;;6255905;23;20801;-86
2021/12/09 10:55:27;;;;;;;126.60;121.37;;;4.60;99.90;;;;;;6255799;23;20403;-85
2021/12/09 10:58:00;;;;;;;172.70;166.00;;;4.50;99.90;;;;;;6255781;23;20514;-86
2021/12/09 11:00:36;;;;;;;164.23;157.87;;;4.50;99.90;;;;;;6255958;23;20388;-84
2021/12/09 11:03:08;;;;;;;258.63;249.30;;;4.50;99.90;;;;;;6256016;22;20448;-85
2021/12/09 11:05:37;;;;;;;229.80;221.63;;;4.50;99.90;;;;;;6255923;23;20411;-85
2021/12/09 11:08:23;;;;;;;233.77;225.00;;;4.50;99.90;;;;;;6255970;23;20431;-87
2021/12/09 11:10:57;;;;;;;245.93;237.53;;;4.50;99.90;;;;;;6245909;23;20457;-85
2021/12/09 11:13:24;;;;;;;259.13;250.07;;;4.50;99.90;;;;;;6255767;23;20510;-85
2021/12/09 11:15:55;;;;;;;379.23;364.23;;;4.50;99.90;;;;;;6244771;23;20412;-85
2021/12/09 11:18:55;;;;;;;300.63;289.83;;;4.50;99.90;;;;;;6258124;23;20188;-86
2021/12/09 11:21:24;;;;;;;300.90;289.90;;;4.50;99.90;;;;;;6256811;23;20418;-84
2021/12/09 11:23:56;;;;;;;308.50;297.87;;;4.60;99.90;;;;;;6247338;23;20474;-82
2021/12/09 11:26:50;;;;;;;238.67;230.17;;;4.60;99.90;;;;;;6246001;23;20769;-82
2021/12/09 11:29:21;;;;;;;174.20;167.03;;;4.60;99.90;;;;;;6246510;23;20478;-84
2021/12/09 11:31:57;;;;;;;140.63;134.77;;;4.70;99.90;;;;;;6247368;23;20419;-85
2021/12/09 11:34:30;;;;;;;76.47;73.13;;;4.80;99.90;;;;;;6247166;23;20861;-86
2021/12/09 11:37:04;;;;;;;96.53;92.57;;;4.70;99.90;;;;;;6246445;23;20521;-84
2021/12/09 11:39:36;;;;;;;117.73;112.60;;;4.70;99.90;;;;;;6246585;23;20427;-87
2021/12/09 11:42:29;;;;;;;73.87;69.93;;;4.80;99.90;;;;;;6259745;23;20430;-89
2021/12/09 11:44:58;;;;;;;91.10;86.77;;;4.90;99.90;;;;;;6258717;23;20442;-88
2021/12/09 11:47:28;;;;;;;75.07;71.10;;;4.90;99.90;;;;;;6259256;23;20933;-84
2021/12/09 11:50:00;;;;;;;59.17;55.27;;;5.00;99.90;;;;;;6258128;23;20823;-85
2021/12/09 11:53:26;;;;;;;29.88;27.48;;;5.00;99.90;;;;;;6259467;23;20404;-86
2021/12/09 12:11:16;;;;;;;22.27;20.07;;;5.20;99.90;;;;;;6249978;23;20437;-82
2021/12/09 12:11:18;;;;;;;23.63;21.93;;;5.10;99.90;;;;;;6248517;23;20407;-83
2021/12/09 12:13:51;;;;;;;24.50;22.53;;;5.10;99.90;;;;;;6248888;23;20387;-83
2021/12/09 12:16:41;;;;;;;33.67;31.33;;;5.10;99.90;;;;;;6248809;23;20728;-83
2021/12/09 12:19:16;;;;;;;35.87;34.27;;;5.00;99.90;;;;;;6248650;23;20485;-83
2021/12/09 12:27:55;;;;;;;33.50;30.93;;;5.00;99.90;;;;;;6246619;23;20585;-82
2021/12/09 12:30:54;;;;;;;30.17;28.23;;;5.00;99.90;;;;;;6247337;23;20426;-83
2021/12/09 12:34:16;;;;;;;42.23;39.77;;;5.00;99.90;;;;;;6257349;23;20431;-82
2021/12/09 12:37:20;;;;;;;52.90;50.43;;;5.00;99.90;;;;;;6246285;23;20406;-83
2021/12/09 12:40:09;;;;;;;51.07;48.30;;;5.00;99.90;;;;;;6256100;23;20433;-83
2021/12/09 12:42:50;;;;;;;45.97;43.30;;;5.10;99.90;;;;;;6256585;23;20407;-82
2021/12/09 12:45:44;;;;;;;40.67;38.37;;;5.00;99.90;;;;;;6256405;23;20403;-82
2021/12/09 12:48:47;;;;;;;42.20;39.53;;;5.00;99.90;;;;;;6246086;23;20933;-82
2021/12/09 12:51:20;;;;;;;44.90;42.30;;;5.10;99.90;;;;;;6246896;23;20399;-82
2021/12/09 12:53:49;;;;;;;51.27;48.00;;;5.10;99.90;;;;;;6246139;23;20455;-82
2021/12/09 12:56:20;;;;;;;47.97;45.00;;;5.10;99.90;;;;;;6256267;23;20469;-83
2021/12/09 12:59:30;;;;;;;48.77;45.87;;;5.10;99.90;;;;;;6256488;23;20434;-82
2021/12/09 13:05:33;;;;;;;58.57;55.40;;;5.10;99.90;;;;;;6130068;23;20746;-83
2021/12/09 13:08:24;;;;;;;36.63;34.23;;;5.20;99.90;;;;;;6181858;23;20525;-83
2021/12/09 13:11:12;;;;;;;43.00;40.80;;;5.20;99.90;;;;;;6256676;23;20490;-84
2021/12/09 13:13:55;;;;;;;26.10;24.50;;;5.20;99.90;;;;;;6256111;23;20769;-83
2021/12/09 13:16:36;;;;;;;21.90;19.83;;;5.20;99.90;;;;;;6256383;22;20442;-83
2021/12/09 13:22:34;;;;;;;25.83;23.93;;;5.10;99.90;;;;;;6239368;22;20411;-83
2021/12/09 13:25:17;;;;;;;17.37;15.10;;;5.10;99.90;;;;;;6256089;23;20403;-81
2021/12/09 13:28:04;;;;;;;14.13;12.70;;;5.10;99.90;;;;;;6257351;23;20431;-84
2021/12/09 13:34:05;;;;;;;;;;;;;;;;;;;;;
2021/12/09 13:37:03;;;;;;;11.80;10.70;;;5.10;99.90;;;;;;6257171;22;20479;-85
2021/12/09 13:40:03;;;;;;;12.60;11.67;;;5.10;99.90;;;;;;6257286;23;20469;-84
2021/12/09 13:46:06;;;;;;;14.47;13.40;;;5.10;99.90;;;;;;6256829;23;20472;-84
2021/12/09 13:49:21;;;;;;;13.93;12.60;;;5.10;99.90;;;;;;6255966;23;20521;-84
2021/12/09 13:54:03;;;;;;;13.13;12.33;;;5.10;99.90;;;;;;6255659;23;20411;-84
2021/12/09 13:54:59;;;;;;;13.60;12.50;;;5.00;99.90;;;;;;6246851;23;20924;-84
2021/12/09 14:00:56;;;;;;;17.93;16.63;;;5.00;99.90;;;;;;6244660;23;20403;-84
2021/12/09 14:03:45;;;;;;;14.90;13.90;;;5.00;99.90;;;;;;6136183;23;20760;-84
2021/12/09 14:12:21;;;;;;;22.30;20.70;;;4.90;99.90;;;;;;6245822;23;20442;-84
2021/12/09 14:15:13;;;;;;;21.97;20.50;;;4.90;99.90;;;;;;6258177;23;20414;-84
2021/12/09 14:17:57;;;;;;;28.00;26.60;;;5.00;99.90;;;;;;6259078;23;20442;-84
2021/12/09 14:20:40;;;;;;;36.60;34.67;;;4.90;99.90;;;;;;6258734;23;20441;-84
2021/12/09 14:23:25;;;;;;;31.50;29.70;;;5.10;99.90;;;;;;6259983;23;20758;-85
2021/12/09 14:26:26;;;;;;;41.70;39.90;;;5.10;99.90;;;;;;6259949;23;20414;-85
2021/12/09 14:29:14;;;;;;;;;;;;;;;;;;;;;
2021/12/09 14:32:03;;;;;;;45.77;43.57;;;5.00;99.90;;;;;;6261810;23;20379;-85
2021/12/09 14:34:44;;;;;;;42.23;40.00;;;5.10;99.90;;;;;;6262322;23;20431;-84
2021/12/09 14:37:25;;;;;;;39.30;37.50;;;5.00;99.90;;;;;;6260359;23;20422;-85
2021/12/09 14:40:17;;;;;;;43.57;41.60;;;5.00;99.90;;;;;;6257881;23;20410;-84
2021/12/09 14:43:11;;;;;;;44.67;42.47;;;5.00;99.90;;;;;;6259235;23;20407;-84
2021/12/09 14:46:02;;;;;;;43.60;41.13;;;4.90;99.90;;;;;;6259978;22;20407;-84
2021/12/09 14:48:39;;;;;;;32.20;30.30;;;5.10;99.90;;;;;;6258145;23;20435;-84
2021/12/09 14:51:21;;;;;;;26.73;24.83;;;5.00;99.90;;;;;;6259038;23;20414;-84
2021/12/09 14:54:08;;;;;;;27.33;25.70;;;5.10;99.90;;;;;;6257832;23;20445;-84
2021/12/09 14:56:47;;;;;;;28.53;26.50;;;5.00;99.90;;;;;;6256172;23;20478;-84
2021/12/09 14:59:29;;;;;;;22.50;20.40;;;5.00;99.90;;;;;;6257488;23;20439;-84
2021/12/09 15:02:19;;;;;;;18.97;17.87;;;5.10;99.90;;;;;;6257048;23;20430;-86
2021/12/09 15:07:58;;;;;;;25.10;23.60;;;5.00;99.90;;;;;;6249126;22;20455;-84
2021/12/09 15:10:26;;;;;;;27.07;25.57;;;5.00;99.90;;;;;;6248303;23;20456;-83
2021/12/09 15:13:13;;;;;;;27.00;25.20;;;5.00;99.90;;;;;;6259284;23;20459;-85
2021/12/09 15:23:08;;;;;;;47.17;44.77;;;4.90;99.90;;;;;;6092383;23;20463;-85
2021/12/09 15:25:59;;;;;;;56.50;53.90;;;4.90;99.90;;;;;;6235283;23;20438;-85
2021/12/09 15:28:54;;;;;;;50.20;47.30;;;4.90;99.90;;;;;;6261976;23;20430;-85
2021/12/09 15:32:16;;;;;;;56.60;53.10;;;4.90;99.90;;;;;;6260747;23;20794;-84
2021/12/09 15:34:59;;;;;;;48.30;45.90;;;4.90;99.90;;;;;;6259489;23;20411;-85
2021/12/09 15:38:03;;;;;;;53.67;50.97;;;4.90;99.90;;;;;;6259285;23;21201;-85
2021/12/09 15:40:57;;;;;;;63.27;60.37;;;4.90;99.90;;;;;;6262271;23;20429;-85
2021/12/09 15:47:07;;;;;;;56.20;53.50;;;4.90;99.90;;;;;;6249304;23;20411;-85
2021/12/09 15:50:11;;;;;;;62.47;59.77;;;4.80;99.90;;;;;;6258630;23;20418;-84
2021/12/09 15:56:04;;;;;;;69.00;65.90;;;4.90;99.90;;;;;;6238446;23;20407;-85
2021/12/09 15:58:33;;;;;;;87.30;83.83;;;5.00;99.90;;;;;;6260591;23;20442;-84
2021/12/09 16:01:25;;;;;;;116.83;112.37;;;4.90;99.90;;;;;;6259683;23;20414;-84
2021/12/09 16:03:54;;;;;;;173.43;167.30;;;4.80;99.90;;;;;;6259522;23;20762;-84
2021/12/09 16:06:27;;;;;;;215.40;207.90;;;4.80;99.90;;;;;;6260163;23;20407;-84
2021/12/09 16:08:54;;;;;;;275.63;265.03;;;4.70;99.90;;;;;;6259288;23;20423;-84
2021/12/09 16:11:22;;;;;;;343.03;328.83;;;4.60;99.90;;;;;;6258805;23;20403;-84
2021/12/09 16:13:57;;;;;;;374.53;359.20;;;4.60;99.90;;;;;;6248782;23;20431;-84
2021/12/09 16:16:32;;;;;;;413.63;395.73;;;4.60;99.90;;;;;;6259009;23;20406;-86
2021/12/09 16:19:03;;;;;;;474.23;452.73;;;4.50;99.90;;;;;;6257941;23;20430;-85
2021/12/09 16:24:18;;;;;;;593.30;565.10;;;4.50;99.90;;;;;;6246695;23;20470;-84
2021/12/09 16:26:45;;;;;;;577.10;551.50;;;4.40;99.90;;;;;;6257345;23;20411;-84
2021/12/09 16:29:15;;;;;;;658.07;625.87;;;4.40;99.90;;;;;;6259192;23;20476;-82
2021/12/09 16:31:43;;;;;;;623.83;594.13;;;4.40;99.90;;;;;;6259137;23;20399;-85
2021/12/09 16:34:14;;;;;;;666.87;634.27;;;4.40;99.90;;;;;;6259085;23;20439;-84
2021/12/09 16:36:48;;;;;;;657.83;627.47;;;4.40;99.90;;;;;;6259100;23;20415;-85
2021/12/09 16:39:18;;;;;;;644.27;614.40;;;4.40;99.90;;;;;;6260839;23;20437;-84
2021/12/09 16:41:46;;;;;;;698.50;663.37;;;4.30;99.90;;;;;;6258539;23;20415;-85
2021/12/09 16:44:14;;;;;;;647.97;617.20;;;4.40;99.90;;;;;;6260844;23;20494;-84
2021/12/09 16:46:43;;;;;;;660.20;628.03;;;4.30;99.90;;;;;;6259215;23;20491;-85
2021/12/09 16:49:24;;;;;;;651.00;620.73;;;4.40;99.90;;;;;;6260782;23;20435;-85
2021/12/09 16:51:53;;;;;;;632.47;603.13;;;4.30;99.90;;;;;;6251520;23;20395;-85
2021/12/09 16:54:28;;;;;;;655.53;624.30;;;4.40;99.90;;;;;;6260656;23;20960;-84
2021/12/09 16:57:08;;;;;;;661.87;630.33;;;4.30;99.90;;;;;;6263670;23;20578;-85
2021/12/09 17:00:12;;;;;;;681.40;647.93;;;4.30;99.90;;;;;;6264477;23;20407;-85
2021/12/09 17:03:01;;;;;;;679.57;646.27;;;4.30;99.90;;;;;;6264827;22;20421;-85
2021/12/09 17:05:52;;;;;;;734.30;693.93;;;4.20;99.90;;;;;;6259782;23;20807;-84
2021/12/09 17:08:23;;;;;;;742.10;699.93;;;4.20;99.90;;;;;;6258160;23;20435;-84
2021/12/09 17:10:58;;;;;;;751.80;708.50;;;4.20;99.90;;;;;;6260066;23;20435;-85
2021/12/09 17:13:35;;;;;;;728.50;689.07;;;4.30;99.90;;;;;;6259246;23;20434;-85
2021/12/09 17:16:02;;;;;;;730.93;691.43;;;4.40;99.90;;;;;;6259404;23;20419;-85
2021/12/09 17:18:41;;;;;;;655.13;622.57;;;4.40;99.90;;;;;;6260407;23;20435;-84
2021/12/09 17:21:23;;;;;;;654.40;622.33;;;4.40;99.90;;;;;;6260448;23;20425;-83
2021/12/09 17:24:00;;;;;;;651.90;620.43;;;4.40;99.90;;;;;;6259355;23;20473;-82
2021/12/09 17:26:30;;;;;;;674.80;641.70;;;4.50;99.90;;;;;;6255262;23;20975;-84
2021/12/09 17:29:12;;;;;;;635.57;604.37;;;4.40;99.90;;;;;;6257024;22;20435;-83
2021/12/09 17:31:43;;;;;;;642.63;611.43;;;4.40;99.90;;;;;;6255997;23;20447;-83
2021/12/09 17:34:31;;;;;;;647.83;616.37;;;4.40;99.90;;;;;;6256061;23;20814;-83
2021/12/09 17:37:18;;;;;;;634.57;603.47;;;4.40;99.90;;;;;;6256422;23;20421;-84
2021/12/09 17:40:09;;;;;;;553.70;529.17;;;4.60;99.90;;;;;;6256323;23;20400;-84
2021/12/09 17:42:53;;;;;;;574.87;549.57;;;4.60;99.90;;;;;;6232460;23;20468;-84
2021/12/09 17:45:29;;;;;;;573.07;548.17;;;4.50;99.90;;;;;;6257085;23;20431;-83
2021/12/09 17:51:15;;;;;;;;;;;;;;;;;;;;;
2021/12/09 18:00:31;;;;;;;424.00;407.23;;;4.60;99.90;;;;;;6240703;23;20752;-83
2021/12/09 18:03:23;;;;;;;433.63;416.53;;;4.60;99.90;;;;;;6255511;23;20411;-83
2021/12/09 18:12:59;;;;;;;436.33;419.47;;;4.70;99.90;;;;;;6242880;23;20495;-84
2021/12/09 18:19:22;;;;;;;426.23;409.13;;;4.70;99.90;;;;;;6002046;23;20415;-84
2021/12/09 18:28:06;;;;;;;450.23;431.87;;;4.80;99.90;;;;;;6244204;22;20441;-84
2021/12/09 18:30:35;;;;;;;456.50;438.67;;;4.70;99.90;;;;;;6246134;23;20407;-83
2021/12/09 18:33:02;;;;;;;468.83;450.10;;;4.70;99.90;;;;;;6248730;23;20407;-84
2021/12/09 18:35:39;;;;;;;438.17;420.80;;;4.70;99.90;;;;;;6246389;23;20417;-83
2021/12/09 18:38:34;;;;;;;451.20;433.13;;;4.70;99.90;;;;;;6254260;23;20441;-83
2021/12/09 18:41:18;;;;;;;485.43;465.23;;;4.60;99.90;;;;;;6244726;23;20423;-84
2021/12/09 18:44:14;;;;;;;487.83;467.83;;;4.80;99.90;;;;;;6256298;23;20436;-84
2021/12/09 18:46:56;;;;;;;492.30;471.60;;;4.70;99.90;;;;;;6218124;23;20473;-83
2021/12/09 18:52:46;;;;;;;415.87;398.97;;;4.60;99.90;;;;;;6244734;23;20485;-84
2021/12/09 18:55:36;;;;;;;344.00;331.30;;;4.70;99.90;;;;;;6255006;23;20431;-82
2021/12/09 18:58:35;;;;;;;310.73;299.33;;;4.80;99.90;;;;;;6255161;23;20462;-83
2021/12/09 19:27:30;;;;;;;401.67;385.97;;;4.70;99.90;;;;;;6120907;23;20594;-83
2021/12/09 19:33:31;;;;;;;385.40;370.40;;;4.70;99.90;;;;;;6145531;23;20419;-82
2021/12/09 19:36:07;;;;;;;409.23;393.53;;;4.80;99.90;;;;;;6243847;23;20752;-84
2021/12/09 19:38:47;;;;;;;420.27;403.53;;;4.70;99.90;;;;;;6254760;23;20476;-83
2021/12/09 19:41:18;;;;;;;419.83;403.50;;;4.80;99.90;;;;;;6246567;23;20406;-83
2021/12/09 19:43:48;;;;;;;435.63;418.73;;;4.70;99.90;;;;;;6257419;23;20403;-84
2021/12/09 19:46:24;;;;;;;449.93;432.10;;;4.70;99.90;;;;;;6256344;23;20450;-84
2021/12/09 19:52:08;;;;;;;444.87;427.57;;;4.70;99.90;;;;;;6215445;23;20794;-83
2021/12/09 20:16:42;;;;;;;636.27;606.73;;;4.40;99.90;;;;;;6154057;23;20418;-83
2021/12/09 20:19:24;;;;;;;688.23;655.17;;;4.30;99.90;;;;;;6167326;23;20492;-83
2021/12/09 20:29:51;;;;;;;711.00;674.90;;;4.30;99.90;;;;;;6138834;23;20430;-83
2021/12/09 20:35:28;;;;;;;599.50;572.40;;;4.50;99.90;;;;;;6155400;23;20448;-83
2021/12/09 20:37:55;;;;;;;639.67;608.30;;;4.50;99.90;;;;;;6156684;23;20437;-82
2021/12/09 20:40:22;;;;;;;628.70;599.10;;;4.50;99.90;;;;;;6155821;23;20410;-82
2021/12/09 20:42:49;;;;;;;648.03;617.57;;;4.60;99.90;;;;;;6158087;23;20414;-82
2021/12/09 20:45:18;;;;;;;629.27;600.20;;;4.50;99.90;;;;;;6158288;23;20497;-81
2021/12/09 20:47:48;;;;;;;669.77;636.37;;;4.40;99.90;;;;;;6158505;23;20440;-83
2021/12/09 20:50:17;;;;;;;716.23;677.43;;;4.40;99.90;;;;;;6157095;23;20778;-84
2021/12/09 20:52:44;;;;;;;747.27;703.77;;;4.40;99.90;;;;;;6165882;23;20932;-83
2021/12/09 20:55:12;;;;;;;761.23;714.87;;;4.40;99.90;;;;;;6156042;23;20440;-83
2021/12/09 20:57:39;;;;;;;780.73;730.33;;;4.40;99.90;;;;;;6156188;23;20440;-84
2021/12/09 21:00:07;;;;;;;792.53;740.47;;;4.30;99.90;;;;;;6167799;23;20410;-83
2021/12/09 21:02:39;;;;;;;799.10;745.17;;;4.30;99.90;;;;;;6157805;23;20414;-83
2021/12/09 21:05:09;;;;;;;811.37;754.73;;;4.30;99.90;;;;;;6158045;23;20395;-86
2021/12/09 21:07:36;;;;;;;807.97;751.67;;;4.20;99.90;;;;;;6167002;23;20436;-83
2021/12/09 21:10:07;;;;;;;798.13;740.57;;;4.30;99.90;;;;;;6157037;23;20500;-83
2021/12/09 21:12:38;;;;;;;791.70;734.43;;;4.20;99.90;;;;;;6165786;23;20437;-83
2021/12/09 21:15:19;;;;;;;790.10;733.30;;;4.20;99.90;;;;;;6156237;23;20478;-81
2021/12/09 21:18:04;;;;;;;790.80;735.23;;;4.30;99.90;;;;;;6166103;23;20442;-83
2021/12/09 21:20:36;;;;;;;787.10;732.83;;;4.30;99.90;;;;;;6166879;23;20449;-84
2021/12/09 21:23:11;;;;;;;787.00;734.43;;;4.40;99.90;;;;;;6166398;23;20390;-83
2021/12/09 21:26:04;;;;;;;775.20;725.33;;;4.30;99.90;;;;;;6156324;23;20390;-83
2021/12/09 21:28:36;;;;;;;772.87;723.23;;;4.30;99.90;;;;;;6166190;23;20441;-84
2021/12/09 21:31:20;;;;;;;770.97;721.57;;;4.30;99.90;;;;;;6166013;23;20418;-83
2021/12/09 21:34:01;;;;;;;764.77;716.53;;;4.30;99.90;;;;;;6165747;23;20424;-84
2021/12/09 21:39:31;;;;;;;765.87;717.73;;;4.30;99.90;;;;;;6155781;23;20547;-83
2021/12/09 21:42:00;;;;;;;768.27;719.40;;;4.20;99.90;;;;;;6165636;23;20413;-83
2021/12/09 21:44:27;;;;;;;769.47;721.50;;;4.20;99.90;;;;;;6166044;23;20517;-83